Time,TemperatureF,DewpointF,PressureIn,WindDirection,WindDirectionDegrees,WindSpeedMPH,WindSpeedGustMPH,Humidity,HourlyPrecipIn,Conditions,Clouds,dailyrainin,SoftwareType,DateUTC
2013-04-11 00:00:00,46.9,45.3,29.83,ESE,105,0.0,4.0,94,0.07,,-RA,0.20,VWS V14.01,2013-04-11 04:00:00,
2013-04-11 00:01:00,46.9,45.3,29.83,ESE,105,0.0,4.0,94,0.07,,-RA,0.20,VWS V14.01,2013-04-11 04:01:00,
2013-04-11 00:03:00,46.8,45.2,29.84,ESE,105,0.0,0.0,94,0.06,,-RA,0.00,VWS V14.01,2013-04-11 04:03:00,
2013-04-11 00:14:00,46.7,45.1,29.83,East,101,2.0,2.0,94,0.06,,-RA,0.00,VWS V14.01,2013-04-11 04:14:00,
2013-04-11 00:19:00,46.5,44.9,29.82,East,101,2.0,3.0,94,0.06,,-RA,0.00,VWS V14.01,2013-04-11 04:19:00,
2013-04-11 00:24:00,46.4,44.8,29.81,ESE,108,2.0,5.0,94,0.06,,-RA,0.00,VWS V14.01,2013-04-11 04:24:00,
2013-04-11 00:29:00,46.2,44.6,29.81,SE,126,2.0,6.0,94,0.06,,-RA,0.00,VWS V14.01,2013-04-11 04:29:00,
2013-04-11 00:34:00,46.1,44.5,29.83,SSE,157,1.0,5.0,94,0.01,,-RA,0.00,VWS V14.01,2013-04-11 04:34:00,
2013-04-11 00:39:00,46.0,44.4,29.83,SSE,157,0.0,5.0,94,0.01,,-RA,0.00,VWS V14.01,2013-04-11 04:39:00,
2013-04-11 00:44:00,46.0,44.4,29.82,SSE,157,0.0,5.0,94,0.01,,-RA,0.00,VWS V14.01,2013-04-11 04:44:00,
2013-04-11 00:49:00,46.0,44.4,29.82,ENE,66,0.0,5.0,94,0.01,,-RA,0.00,VWS V14.01,2013-04-11 04:49:00,
2013-04-11 00:54:00,45.9,44.3,29.82,ENE,66,1.0,5.0,94,0.01,,-RA,0.00,VWS V14.01,2013-04-11 04:54:00,
2013-04-11 00:59:00,45.9,44.3,29.82,ENE,66,0.0,5.0,94,0.01,,-RA,0.00,VWS V14.01,2013-04-11 04:59:00,
2013-04-11 01:04:00,45.9,44.3,29.81,ENE,66,0.0,2.0,94,0.00,,OVC100,0.00,VWS V14.01,2013-04-11 05:04:00,
2013-04-11 01:09:00,45.9,44.3,29.80,ENE,66,1.0,3.0,94,0.01,,OVC100,0.01,VWS V14.01,2013-04-11 05:09:00,
2013-04-11 01:14:00,45.8,44.2,29.79,ENE,66,2.0,3.0,94,0.01,,OVC100,0.01,VWS V14.01,2013-04-11 05:14:00,
2013-04-11 01:19:00,45.8,44.5,29.79,ENE,66,1.0,3.0,95,0.01,,OVC100,0.01,VWS V14.01,2013-04-11 05:19:00,
2013-04-11 01:24:00,45.8,44.5,29.80,ENE,66,0.0,3.0,95,0.01,,OVC100,0.01,VWS V14.01,2013-04-11 05:24:00,
2013-04-11 01:29:00,45.8,44.5,29.80,ENE,66,0.0,3.0,95,0.01,,OVC100,0.01,VWS V14.01,2013-04-11 05:29:00,
2013-04-11 01:34:00,45.8,44.5,29.79,ENE,66,0.0,1.0,95,0.01,,OVC100,0.01,VWS V14.01,2013-04-11 05:34:00,
2013-04-11 01:39:00,46.0,44.7,29.78,ENE,66,0.0,2.0,95,0.01,,OVC100,0.01,VWS V14.01,2013-04-11 05:39:00,
2013-04-11 01:44:00,46.0,44.7,29.78,ENE,66,1.0,2.0,95,0.01,,OVC100,0.01,VWS V14.01,2013-04-11 05:44:00,
2013-04-11 01:49:00,46.1,44.8,29.79,ENE,66,0.0,2.0,95,0.01,,OVC100,0.01,VWS V14.01,2013-04-11 05:49:00,
2013-04-11 01:54:00,46.1,44.8,29.79,ENE,66,0.0,2.0,95,0.01,,OVC100,0.01,VWS V14.01,2013-04-11 05:54:00,
2013-04-11 01:59:00,46.1,44.8,29.79,ENE,66,0.0,2.0,95,0.01,,OVC100,0.01,VWS V14.01,2013-04-11 05:59:00,
2013-04-11 02:04:00,46.2,44.8,29.80,ENE,66,0.0,0.0,95,0.01,,OVC005,0.01,VWS V14.01,2013-04-11 06:04:00,
2013-04-11 02:09:00,46.2,44.8,29.80,ENE,66,0.0,0.0,95,0.01,,OVC005,0.01,VWS V14.01,2013-04-11 06:09:00,
2013-04-11 02:14:00,46.3,45.0,29.80,ENE,66,0.0,0.0,95,0.01,,OVC005,0.01,VWS V14.01,2013-04-11 06:14:00,
2013-04-11 02:19:00,46.3,45.0,29.80,ENE,66,0.0,0.0,95,0.01,,OVC005,0.01,VWS V14.01,2013-04-11 06:19:00,
2013-04-11 02:24:00,46.3,45.0,29.80,ENE,66,0.0,0.0,95,0.01,,OVC005,0.01,VWS V14.01,2013-04-11 06:24:00,
2013-04-11 02:29:00,46.4,45.0,29.79,ENE,66,0.0,1.0,95,0.01,,OVC005,0.01,VWS V14.01,2013-04-11 06:29:00,
2013-04-11 02:34:00,46.5,45.2,29.79,ENE,66,0.0,2.0,95,0.00,,OVC005,0.01,VWS V14.01,2013-04-11 06:34:00,
2013-04-11 02:39:00,46.5,45.2,29.79,ENE,66,0.0,2.0,95,0.00,,OVC005,0.01,VWS V14.01,2013-04-11 06:39:00,
2013-04-11 02:44:00,46.5,45.2,29.79,ENE,66,0.0,2.0,95,0.00,,OVC005,0.01,VWS V14.01,2013-04-11 06:44:00,
2013-04-11 02:49:00,46.6,45.5,29.79,ENE,66,0.0,2.0,96,0.00,,OVC005,0.01,VWS V14.01,2013-04-11 06:49:00,
2013-04-11 02:54:00,46.7,45.6,29.79,ENE,66,0.0,2.0,96,0.00,,OVC005,0.01,VWS V14.01,2013-04-11 06:54:00,
2013-04-11 02:59:00,46.7,45.6,29.78,ENE,66,0.0,2.0,96,0.00,,OVC005,0.01,VWS V14.01,2013-04-11 06:59:00,
2013-04-11 03:04:00,46.8,45.7,29.79,ENE,66,0.0,0.0,96,0.00,,OVC005,0.01,VWS V14.01,2013-04-11 07:04:00,
2013-04-11 03:09:00,46.8,45.7,29.78,ENE,66,1.0,1.0,96,0.00,,OVC005,0.01,VWS V14.01,2013-04-11 07:09:00,
2013-04-11 03:14:00,46.9,45.8,29.77,ENE,66,0.0,2.0,96,0.00,,OVC005,0.01,VWS V14.01,2013-04-11 07:14:00,
2013-04-11 03:19:00,47.0,45.9,29.77,ENE,66,1.0,2.0,96,0.00,,OVC005,0.01,VWS V14.01,2013-04-11 07:19:00,
2013-04-11 03:24:00,47.1,46.0,29.77,ENE,66,1.0,2.0,96,0.00,,OVC005,0.01,VWS V14.01,2013-04-11 07:24:00,
2013-04-11 03:29:00,47.2,46.1,29.78,ENE,66,0.0,2.0,96,0.00,,OVC005,0.01,VWS V14.01,2013-04-11 07:29:00,
2013-04-11 03:34:00,47.2,46.1,29.78,ENE,66,0.0,0.0,96,0.00,,OVC005,0.01,VWS V14.01,2013-04-11 07:34:00,
2013-04-11 03:39:00,47.2,46.1,29.78,ENE,66,0.0,0.0,96,0.00,,OVC005,0.01,VWS V14.01,2013-04-11 07:39:00,
2013-04-11 03:44:00,47.2,46.1,29.77,ENE,66,0.0,0.0,96,0.00,,OVC005,0.01,VWS V14.01,2013-04-11 07:44:00,
2013-04-11 03:49:00,47.3,46.2,29.77,ENE,66,0.0,1.0,96,0.00,,OVC005,0.01,VWS V14.01,2013-04-11 07:49:00,
2013-04-11 03:54:00,47.3,46.2,29.78,ENE,66,0.0,1.0,96,0.00,,OVC005,0.01,VWS V14.01,2013-04-11 07:54:00,
2013-04-11 03:59:00,47.4,46.3,29.78,ENE,66,0.0,1.0,96,0.00,,OVC005,0.01,VWS V14.01,2013-04-11 07:59:00,
2013-04-11 04:04:00,47.4,46.3,29.77,ENE,66,0.0,1.0,96,0.00,,,0.01,VWS V14.01,2013-04-11 08:04:00,
2013-04-11 04:09:00,47.5,46.4,29.77,ENE,66,0.0,2.0,96,0.00,,,0.01,VWS V14.01,2013-04-11 08:09:00,
2013-04-11 04:14:00,47.6,46.5,29.77,ENE,66,0.0,2.0,96,0.00,,,0.01,VWS V14.01,2013-04-11 08:14:00,
2013-04-11 04:19:00,47.6,46.5,29.77,ENE,66,0.0,2.0,96,0.00,,,0.01,VWS V14.01,2013-04-11 08:19:00,
2013-04-11 04:24:00,47.7,46.6,29.78,ENE,66,0.0,2.0,96,0.00,,,0.01,VWS V14.01,2013-04-11 08:24:00,
2013-04-11 04:29:00,47.8,46.7,29.79,NNW,331,3.0,4.0,96,0.00,,,0.01,VWS V14.01,2013-04-11 08:29:00,
2013-04-11 04:34:00,47.9,46.8,29.80,NNW,331,0.0,3.0,96,0.00,,,0.01,VWS V14.01,2013-04-11 08:34:00,
2013-04-11 04:39:00,47.9,46.8,29.78,North,360,1.0,6.0,96,0.00,,,0.01,VWS V14.01,2013-04-11 08:39:00,
2013-04-11 04:44:00,48.1,47.0,29.77,North,360,1.0,6.0,96,0.00,,,0.01,VWS V14.01,2013-04-11 08:44:00,
2013-04-11 04:49:00,48.1,47.0,29.79,NW,325,2.0,6.0,96,0.00,,,0.01,VWS V14.01,2013-04-11 08:49:00,
2013-04-11 04:54:00,48.1,47.0,29.79,NW,325,0.0,6.0,96,0.00,,,0.01,VWS V14.01,2013-04-11 08:54:00,
2013-04-11 04:59:00,48.2,47.1,29.79,NW,325,0.0,6.0,96,0.00,,,0.01,VWS V14.01,2013-04-11 08:59:00,
2013-04-11 05:04:00,48.2,47.1,29.79,NW,325,0.0,0.0,96,0.00,,,0.01,VWS V14.01,2013-04-11 09:04:00,
2013-04-11 05:09:00,48.2,47.1,29.80,NW,325,0.0,0.0,96,0.00,,,0.01,VWS V14.01,2013-04-11 09:09:00,
2013-04-11 05:14:00,48.3,47.2,29.79,NW,325,0.0,0.0,96,0.00,,,0.01,VWS V14.01,2013-04-11 09:14:00,
2013-04-11 05:19:00,48.2,47.1,29.79,NW,325,0.0,0.0,96,0.00,,,0.01,VWS V14.01,2013-04-11 09:19:00,
2013-04-11 05:24:00,48.3,47.2,29.80,NW,325,0.0,1.0,96,0.00,,,0.01,VWS V14.01,2013-04-11 09:24:00,
2013-04-11 05:29:00,48.3,47.2,29.81,NW,325,0.0,2.0,96,0.00,,,0.01,VWS V14.01,2013-04-11 09:29:00,
2013-04-11 05:34:00,48.3,47.2,29.81,NW,325,0.0,0.0,96,0.00,,,0.01,VWS V14.01,2013-04-11 09:34:00,
2013-04-11 05:39:00,48.3,47.2,29.82,NW,325,0.0,1.0,96,0.00,,,0.01,VWS V14.01,2013-04-11 09:39:00,
2013-04-11 05:44:00,48.3,47.2,29.82,NW,325,0.0,1.0,96,0.00,,,0.01,VWS V14.01,2013-04-11 09:44:00,
2013-04-11 05:49:00,48.4,47.3,29.82,NW,325,0.0,1.0,96,0.00,,,0.01,VWS V14.01,2013-04-11 09:49:00,
2013-04-11 05:54:00,48.5,47.4,29.83,NW,325,0.0,1.0,96,0.00,,,0.01,VWS V14.01,2013-04-11 09:54:00,
2013-04-11 05:59:00,48.5,47.4,29.84,NW,325,0.0,1.0,96,0.00,,,0.01,VWS V14.01,2013-04-11 09:59:00,
2013-04-11 06:04:00,48.6,47.5,29.84,NW,325,0.0,0.0,96,0.00,,,0.01,VWS V14.01,2013-04-11 10:04:00,
2013-04-11 06:09:00,48.7,47.6,29.83,NW,325,0.0,0.0,96,0.00,,,0.01,VWS V14.01,2013-04-11 10:09:00,
2013-04-11 06:14:00,48.8,47.7,29.84,NW,325,0.0,0.0,96,0.00,,,0.01,VWS V14.01,2013-04-11 10:14:00,
2013-04-11 06:19:00,48.9,47.8,29.84,NW,325,0.0,0.0,96,0.00,,,0.01,VWS V14.01,2013-04-11 10:19:00,
2013-04-11 06:24:00,48.9,47.8,29.85,NW,325,0.0,0.0,96,0.00,,,0.01,VWS V14.01,2013-04-11 10:24:00,
2013-04-11 06:29:00,49.0,47.9,29.85,NW,325,0.0,0.0,96,0.00,,,0.01,VWS V14.01,2013-04-11 10:29:00,
2013-04-11 06:34:00,49.1,48.0,29.85,NW,325,0.0,0.0,96,0.00,,,0.01,VWS V14.01,2013-04-11 10:34:00,
2013-04-11 06:39:00,49.2,48.1,29.85,NW,325,0.0,0.0,96,0.00,,,0.01,VWS V14.01,2013-04-11 10:39:00,
2013-04-11 06:44:00,49.3,48.2,29.86,NW,325,0.0,0.0,96,0.00,,,0.01,VWS V14.01,2013-04-11 10:44:00,
2013-04-11 06:49:00,49.3,48.2,29.87,NW,325,0.0,0.0,96,0.00,,,0.01,VWS V14.01,2013-04-11 10:49:00,
2013-04-11 06:54:00,49.4,48.3,29.87,NW,325,0.0,0.0,96,0.00,,,0.01,VWS V14.01,2013-04-11 10:54:00,
2013-04-11 06:59:00,49.5,48.4,29.87,NW,325,0.0,1.0,96,0.00,,,0.01,VWS V14.01,2013-04-11 10:59:00,
2013-04-11 07:04:00,49.5,48.4,29.88,NW,325,0.0,2.0,96,0.00,,,0.01,VWS V14.01,2013-04-11 11:04:00,
2013-04-11 07:09:00,49.6,48.5,29.88,NW,313,3.0,5.0,96,0.00,,,0.01,VWS V14.01,2013-04-11 11:09:00,
2013-04-11 07:14:00,49.7,48.6,29.87,NW,313,0.0,5.0,96,0.00,,,0.01,VWS V14.01,2013-04-11 11:14:00,
2013-04-11 07:19:00,49.8,48.7,29.88,NW,313,2.0,5.0,96,0.00,,,0.01,VWS V14.01,2013-04-11 11:19:00,
2013-04-11 07:24:00,49.9,48.8,29.88,NW,313,0.0,5.0,96,0.00,,,0.01,VWS V14.01,2013-04-11 11:24:00,
2013-04-11 07:29:00,50.0,49.2,29.89,NW,313,0.0,5.0,97,0.00,,,0.01,VWS V14.01,2013-04-11 11:29:00,
2013-04-11 07:34:00,50.2,49.4,29.89,NW,313,0.0,2.0,97,0.00,,,0.01,VWS V14.01,2013-04-11 11:34:00,
2013-04-11 07:39:00,50.3,49.5,29.89,NW,313,0.0,2.0,97,0.00,,,0.01,VWS V14.01,2013-04-11 11:39:00,
2013-04-11 07:44:00,50.5,49.7,29.89,NW,313,0.0,2.0,97,0.00,,,0.01,VWS V14.01,2013-04-11 11:44:00,
2013-04-11 07:49:00,50.8,50.0,29.88,NW,313,0.0,2.0,97,0.00,,,0.01,VWS V14.01,2013-04-11 11:49:00,
2013-04-11 07:54:00,50.9,50.1,29.89,NW,315,1.0,4.0,97,0.00,,,0.01,VWS V14.01,2013-04-11 11:54:00,
2013-04-11 07:59:00,51.1,50.3,29.88,NNW,334,2.0,6.0,97,0.00,,,0.01,VWS V14.01,2013-04-11 11:59:00,
2013-04-11 08:04:00,51.3,50.5,29.89,WNW,303,5.0,7.0,97,0.00,,,0.01,VWS V14.01,2013-04-11 12:04:00,
2013-04-11 08:09:00,51.4,50.6,29.89,NNW,332,0.0,7.0,97,0.00,,,0.01,VWS V14.01,2013-04-11 12:09:00,
2013-04-11 08:14:00,51.4,50.6,29.89,NNW,339,0.0,7.0,97,0.00,,,0.01,VWS V14.01,2013-04-11 12:14:00,
2013-04-11 08:19:00,51.5,50.7,29.88,North,355,1.0,7.0,97,0.00,,,0.01,VWS V14.01,2013-04-11 12:19:00,
2013-04-11 08:24:00,51.5,50.7,29.88,NE,40,1.0,7.0,97,0.00,,,0.01,VWS V14.01,2013-04-11 12:24:00,
2013-04-11 08:29:00,51.6,50.8,29.88,NNW,343,0.0,7.0,97,0.00,,,0.01,VWS V14.01,2013-04-11 12:29:00,
2013-04-11 08:34:00,51.6,50.8,29.88,NNW,343,1.0,2.0,97,0.00,,,0.01,VWS V14.01,2013-04-11 12:34:00,
2013-04-11 08:39:00,51.7,50.9,29.88,ENE,57,4.0,4.0,97,0.00,,,0.01,VWS V14.01,2013-04-11 12:39:00,
2013-04-11 08:44:00,51.9,51.1,29.88,NNW,347,0.0,5.0,97,0.00,,,0.01,VWS V14.01,2013-04-11 12:44:00,
2013-04-11 08:49:00,52.0,51.2,29.89,NNW,331,1.0,5.0,97,0.00,,,0.01,VWS V14.01,2013-04-11 12:49:00,
2013-04-11 08:55:00,52.1,51.3,29.90,NW,319,3.0,6.0,97,0.00,,,0.01,VWS V14.01,2013-04-11 12:55:00,
2013-04-11 09:00:00,52.1,51.0,29.91,NNW,334,2.0,9.0,96,0.00,,,0.01,VWS V14.01,2013-04-11 13:00:00,
2013-04-11 09:05:00,52.0,50.9,29.90,NNW,328,6.0,6.0,96,0.00,,OVC013,0.01,VWS V14.01,2013-04-11 13:05:00,
2013-04-11 09:10:00,52.1,51.0,29.91,NW,323,3.0,6.0,96,0.00,,OVC013,0.01,VWS V14.01,2013-04-11 13:10:00,
2013-04-11 09:15:00,52.2,51.1,29.91,NW,305,2.0,6.0,96,0.00,,OVC013,0.01,VWS V14.01,2013-04-11 13:15:00,
2013-04-11 09:20:00,52.2,51.1,29.91,North,5,3.0,6.0,96,0.00,,OVC013,0.01,VWS V14.01,2013-04-11 13:20:00,
2013-04-11 09:25:00,52.3,51.2,29.92,NW,311,2.0,6.0,96,0.00,,OVC013,0.01,VWS V14.01,2013-04-11 13:25:00,
2013-04-11 09:30:00,52.4,51.0,29.92,NW,322,3.0,7.0,95,0.00,,OVC013,0.01,VWS V14.01,2013-04-11 13:30:00,
2013-04-11 09:35:00,52.4,50.7,29.92,NW,325,2.0,4.0,94,0.00,,OVC055,0.01,VWS V14.01,2013-04-11 13:35:00,
2013-04-11 09:40:00,52.4,50.7,29.92,NNE,32,1.0,6.0,94,0.00,,OVC055,0.01,VWS V14.01,2013-04-11 13:40:00,
2013-04-11 09:45:00,52.5,50.5,29.92,NNE,32,1.0,6.0,93,0.00,,OVC055,0.01,VWS V14.01,2013-04-11 13:45:00,
2013-04-11 09:50:00,52.7,50.7,29.92,ENE,58,3.0,6.0,93,0.00,,OVC055,0.01,VWS V14.01,2013-04-11 13:50:00,
2013-04-11 09:55:00,53.0,50.7,29.92,NNE,23,3.0,6.0,92,0.00,,OVC055,0.01,VWS V14.01,2013-04-11 13:55:00,
2013-04-11 10:00:00,53.6,51.0,29.92,NE,42,0.0,6.0,91,0.00,,OVC055,0.01,VWS V14.01,2013-04-11 14:00:00,
2013-04-11 10:05:00,53.9,50.7,29.92,NE,50,3.0,6.0,89,0.00,,OVC041,0.01,VWS V14.01,2013-04-11 14:05:00,
2013-04-11 10:10:00,54.5,51.3,29.91,ENE,68,3.0,6.0,89,0.00,,OVC041,0.01,VWS V14.01,2013-04-11 14:10:00,
2013-04-11 10:15:00,55.1,51.3,29.91,NNE,19,3.0,6.0,87,0.00,,OVC041,0.01,VWS V14.01,2013-04-11 14:15:00,
2013-04-11 10:20:00,55.7,51.6,29.91,NE,50,2.0,6.0,86,0.00,,OVC041,0.01,VWS V14.01,2013-04-11 14:20:00,
2013-04-11 10:25:00,56.4,51.6,29.91,NE,53,3.0,6.0,84,0.00,,OVC041,0.01,VWS V14.01,2013-04-11 14:25:00,
2013-04-11 10:30:00,56.8,51.7,29.91,NNE,33,3.0,7.0,83,0.00,,OVC041,0.01,VWS V14.01,2013-04-11 14:30:00,
2013-04-11 10:35:00,57.0,51.6,29.91,NNW,335,2.0,3.0,82,0.00,,OVC041,0.01,VWS V14.01,2013-04-11 14:35:00,
2013-04-11 10:40:00,57.3,51.2,29.92,North,355,1.0,5.0,80,0.00,,OVC041,0.01,VWS V14.01,2013-04-11 14:40:00,
2013-04-11 10:45:00,57.6,51.1,29.92,NW,325,1.0,5.0,79,0.00,,OVC041,0.01,VWS V14.01,2013-04-11 14:45:00,
2013-04-11 10:50:00,57.9,51.1,29.92,NNW,327,3.0,5.0,78,0.00,,OVC041,0.01,VWS V14.01,2013-04-11 14:50:00,
2013-04-11 10:55:00,58.1,51.3,29.92,NE,43,0.0,7.0,78,0.00,,OVC041,0.01,VWS V14.01,2013-04-11 14:55:00,
2013-04-11 11:00:00,58.2,51.0,29.91,NNW,330,4.0,7.0,77,0.00,,OVC041,0.01,VWS V14.01,2013-04-11 15:00:00,
2013-04-11 11:05:00,58.3,50.8,29.92,NNW,347,1.0,5.0,76,0.00,,BKN041,0.01,VWS V14.01,2013-04-11 15:05:00,
2013-04-11 11:10:00,58.4,50.5,29.92,NNW,347,1.0,5.0,75,0.00,,BKN041,0.01,VWS V14.01,2013-04-11 15:10:00,
2013-04-11 11:15:00,58.5,51.0,29.92,NW,326,1.0,5.0,76,0.00,,BKN041,0.01,VWS V14.01,2013-04-11 15:15:00,
2013-04-11 11:20:00,58.8,51.3,29.92,NNW,330,3.0,6.0,76,0.00,,BKN041,0.01,VWS V14.01,2013-04-11 15:20:00,
2013-04-11 11:25:00,59.3,51.4,29.92,NE,49,0.0,6.0,75,0.00,,BKN041,0.01,VWS V14.01,2013-04-11 15:25:00,
2013-04-11 11:30:00,60.0,51.7,29.92,ENE,64,2.0,10.0,74,0.00,,BKN041,0.01,VWS V14.01,2013-04-11 15:30:00,
2013-04-11 11:35:00,60.9,51.8,29.92,WNW,294,4.0,6.0,72,0.00,,BKN041,0.01,VWS V14.01,2013-04-11 15:35:00,
2013-04-11 11:40:00,61.5,51.6,29.92,ENE,57,5.0,6.0,70,0.00,,BKN041,0.01,VWS V14.01,2013-04-11 15:40:00,
2013-04-11 11:45:00,61.9,51.6,29.92,NNE,28,0.0,6.0,69,0.00,,BKN041,0.01,VWS V14.01,2013-04-11 15:45:00,
2013-04-11 11:50:00,61.9,50.8,29.92,ENE,57,4.0,6.0,67,0.00,,BKN041,0.01,VWS V14.01,2013-04-11 15:50:00,
2013-04-11 11:55:00,62.1,51.4,29.92,NE,53,4.0,7.0,68,0.00,,BKN041,0.01,VWS V14.01,2013-04-11 15:55:00,
2013-04-11 12:00:00,62.3,51.6,29.91,NE,44,4.0,7.0,68,0.00,,BKN041,0.01,VWS V14.01,2013-04-11 16:00:00,
2013-04-11 12:05:00,62.7,51.6,29.91,ENE,74,2.0,6.0,67,0.00,,OVC025,0.01,VWS V14.01,2013-04-11 16:05:00,
2013-04-11 12:10:00,62.7,50.4,29.92,NNW,331,2.0,6.0,64,0.00,,OVC025,0.01,VWS V14.01,2013-04-11 16:10:00,
2013-04-11 12:15:00,62.5,50.2,29.92,ENE,67,2.0,7.0,64,0.00,,OVC025,0.01,VWS V14.01,2013-04-11 16:15:00,
2013-04-11 12:20:00,62.3,50.4,29.92,NE,49,2.0,7.0,65,0.00,,OVC025,0.01,VWS V14.01,2013-04-11 16:20:00,
2013-04-11 12:25:00,62.1,50.6,29.92,North,5,5.0,7.0,66,0.00,,OVC025,0.01,VWS V14.01,2013-04-11 16:25:00,
2013-04-11 12:30:00,62.0,50.1,29.92,NNW,337,0.0,7.0,65,0.00,,OVC025,0.01,VWS V14.01,2013-04-11 16:30:00,
2013-04-11 12:35:00,61.8,50.7,29.92,SE,140,3.0,6.0,67,0.00,,OVC025,0.01,VWS V14.01,2013-04-11 16:35:00,
2013-04-11 12:40:00,60.9,51.1,29.92,SE,146,0.0,7.0,70,0.00,,OVC025,0.01,VWS V14.01,2013-04-11 16:40:00,
2013-04-11 12:45:00,59.8,50.8,29.93,SSE,158,2.0,7.0,72,0.00,,OVC025,0.01,VWS V14.01,2013-04-11 16:45:00,
2013-04-11 12:50:00,59.1,50.5,29.93,ESE,119,4.0,7.0,73,0.00,,OVC025,0.01,VWS V14.01,2013-04-11 16:50:00,
2013-04-11 12:55:00,58.2,50.0,29.93,SSE,158,3.0,7.0,74,0.00,,OVC025,0.01,VWS V14.01,2013-04-11 16:55:00,
2013-04-11 13:00:00,56.9,49.4,29.93,SE,144,3.0,7.0,76,0.00,,OVC025,0.01,VWS V14.01,2013-04-11 17:00:00,
2013-04-11 13:05:00,55.6,48.5,29.94,SSE,166,3.0,9.0,77,0.00,,OVC032,0.01,VWS V14.01,2013-04-11 17:05:00,
2013-04-11 13:10:00,54.6,48.6,29.94,SE,129,1.0,9.0,80,0.00,,OVC032,0.01,VWS V14.01,2013-04-11 17:10:00,
2013-04-11 13:15:00,54.0,48.3,29.94,South,175,1.0,9.0,81,0.00,,OVC032,0.01,VWS V14.01,2013-04-11 17:15:00,
2013-04-11 13:20:00,53.5,48.2,29.94,East,96,0.0,9.0,82,0.00,,OVC032,0.01,VWS V14.01,2013-04-11 17:20:00,
2013-04-11 13:25:00,53.2,47.9,29.94,ESE,111,2.0,9.0,82,0.00,,OVC032,0.01,VWS V14.01,2013-04-11 17:25:00,
2013-04-11 13:30:00,53.0,48.0,29.94,ESE,118,1.0,9.0,83,0.00,,OVC032,0.01,VWS V14.01,2013-04-11 17:30:00,
2013-04-11 13:35:00,52.9,47.9,29.94,ESE,104,2.0,4.0,83,0.00,,OVC032,0.01,VWS V14.01,2013-04-11 17:35:00,
2013-04-11 13:40:00,52.8,48.1,29.95,ESE,104,0.0,4.0,84,0.00,,OVC032,0.01,VWS V14.01,2013-04-11 17:40:00,
2013-04-11 13:45:00,52.8,48.1,29.95,ESE,104,2.0,4.0,84,0.00,,OVC032,0.01,VWS V14.01,2013-04-11 17:45:00,
2013-04-11 13:50:00,52.8,47.8,29.95,ESE,104,0.0,4.0,83,0.00,,OVC032,0.01,VWS V14.01,2013-04-11 17:50:00,
2013-04-11 13:55:00,52.8,47.8,29.95,ESE,103,3.0,4.0,83,0.00,,OVC032,0.01,VWS V14.01,2013-04-11 17:55:00,
2013-04-11 14:00:00,52.8,47.8,29.95,ESE,103,0.0,5.0,83,0.00,,OVC034,0.01,VWS V14.01,2013-04-11 18:00:00,
2013-04-11 14:05:00,52.7,47.7,29.95,ESE,110,0.0,4.0,83,0.00,,OVC034,0.01,VWS V14.01,2013-04-11 18:05:00,
2013-04-11 14:10:00,52.8,47.8,29.95,ESE,105,2.0,4.0,83,0.00,,OVC034,0.01,VWS V14.01,2013-04-11 18:10:00,
2013-04-11 14:15:00,52.8,47.8,29.95,SE,127,4.0,5.0,83,0.00,,OVC034,0.01,VWS V14.01,2013-04-11 18:15:00,
2013-04-11 14:20:00,52.7,47.7,29.95,East,94,2.0,5.0,83,0.00,,OVC034,0.01,VWS V14.01,2013-04-11 18:20:00,
2013-04-11 14:26:00,52.7,47.7,29.94,ESE,103,2.0,5.0,83,0.00,,OVC034,0.01,VWS V14.01,2013-04-11 18:26:00,
2013-04-11 14:31:00,52.6,47.6,29.94,ESE,111,2.0,10.0,83,0.00,,OVC034,0.01,VWS V14.01,2013-04-11 18:31:00,
2013-04-11 14:36:00,52.5,47.5,29.95,ENE,65,1.0,5.0,83,0.00,,OVC034,0.01,VWS V14.01,2013-04-11 18:36:00,
2013-04-11 14:41:00,52.3,47.3,29.94,ESE,112,3.0,11.0,83,0.00,,OVC034,0.01,VWS V14.01,2013-04-11 18:41:00,
2013-04-11 14:46:00,52.2,47.2,29.94,ENE,64,5.0,11.0,83,0.00,,OVC034,0.01,VWS V14.01,2013-04-11 18:46:00,
2013-04-11 14:51:00,52.1,47.1,29.94,ESE,103,2.0,11.0,83,0.00,,OVC034,0.01,VWS V14.01,2013-04-11 18:51:00,
2013-04-11 14:56:00,52.0,47.0,29.95,East,84,1.0,11.0,83,0.00,,OVC034,0.01,VWS V14.01,2013-04-11 18:56:00,
2013-04-11 15:01:00,52.0,47.0,29.95,NE,56,3.0,11.0,83,0.00,,OVC023,0.01,VWS V14.01,2013-04-11 19:01:00,
2013-04-11 15:06:00,52.1,47.1,29.95,ESE,113,2.0,10.0,83,0.00,,OVC023,0.01,VWS V14.01,2013-04-11 19:06:00,
2013-04-11 15:11:00,52.0,47.0,29.95,ENE,74,2.0,10.0,83,0.00,,OVC023,0.01,VWS V14.01,2013-04-11 19:11:00,
2013-04-11 15:16:00,52.1,47.1,29.95,ESE,123,2.0,10.0,83,0.00,,OVC023,0.01,VWS V14.01,2013-04-11 19:16:00,
2013-04-11 15:26:00,52.1,47.1,29.95,East,98,3.0,11.0,83,0.00,,OVC023,0.01,VWS V14.01,2013-04-11 19:26:00,
2013-04-11 15:31:00,51.8,46.5,29.95,East,85,1.0,11.0,82,0.00,,OVC023,0.01,VWS V14.01,2013-04-11 19:31:00,
2013-04-11 15:36:00,51.6,46.3,29.95,ESE,119,1.0,7.0,82,0.00,,OVC023,0.01,VWS V14.01,2013-04-11 19:36:00,
2013-04-11 15:41:00,51.3,46.0,29.95,ESE,103,1.0,9.0,82,0.00,,OVC023,0.01,VWS V14.01,2013-04-11 19:41:00,
2013-04-11 15:46:00,51.1,45.8,29.95,East,101,4.0,10.0,82,0.00,,OVC041,0.01,VWS V14.01,2013-04-11 19:46:00,
2013-04-11 15:51:00,50.7,45.4,29.95,ESE,112,2.0,10.0,82,0.00,,OVC041,0.01,VWS V14.01,2013-04-11 19:51:00,
2013-04-11 15:56:00,50.5,45.2,29.95,ENE,71,3.0,10.0,82,0.00,,OVC041,0.01,VWS V14.01,2013-04-11 19:56:00,
2013-04-11 16:01:00,50.4,45.1,29.95,ENE,74,3.0,10.0,82,0.00,,OVC043,0.01,VWS V14.01,2013-04-11 20:01:00,
2013-04-11 16:06:00,50.3,45.3,29.95,ESE,118,5.0,8.0,83,0.00,,OVC043,0.01,VWS V14.01,2013-04-11 20:06:00,
2013-04-11 16:11:00,50.1,44.8,29.96,ESE,115,2.0,8.0,82,0.00,,OVC043,0.01,VWS V14.01,2013-04-11 20:11:00,
2013-04-11 16:21:00,49.6,44.7,29.96,ESE,106,2.0,8.0,83,0.00,,OVC043,0.01,VWS V14.01,2013-04-11 20:21:00,
2013-04-11 16:26:00,49.5,44.6,29.96,ESE,106,1.0,8.0,83,0.00,,OVC043,0.01,VWS V14.01,2013-04-11 20:26:00,
2013-04-11 16:31:00,49.4,44.5,29.97,ESE,115,3.0,4.0,83,0.00,,OVC043,0.01,VWS V14.01,2013-04-11 20:31:00,
2013-04-11 16:36:00,49.1,44.2,29.97,ESE,120,3.0,5.0,83,0.00,,OVC043,0.01,VWS V14.01,2013-04-11 20:36:00,
2013-04-11 16:47:00,48.8,44.2,29.97,SE,130,5.0,7.0,84,0.00,,OVC043,0.01,VWS V14.01,2013-04-11 20:47:00,
2013-04-11 16:52:00,48.7,44.1,29.97,ENE,77,2.0,7.0,84,0.00,,OVC043,0.01,VWS V14.01,2013-04-11 20:52:00,
2013-04-11 16:57:00,48.7,44.1,29.96,ESE,111,1.0,7.0,84,0.00,,OVC043,0.01,VWS V14.01,2013-04-11 20:57:00,
2013-04-11 17:02:00,48.6,44.0,29.96,ENE,74,0.0,0.0,84,0.00,,OVC047,0.01,VWS V14.01,2013-04-11 21:02:00,
2013-04-11 17:07:00,48.7,44.4,29.96,NE,53,3.0,5.0,85,0.00,,OVC047,0.01,VWS V14.01,2013-04-11 21:07:00,
2013-04-11 17:12:00,48.6,44.0,29.96,ENE,69,1.0,7.0,84,0.00,,OVC047,0.01,VWS V14.01,2013-04-11 21:12:00,
2013-04-11 17:17:00,48.6,44.0,29.97,ENE,71,3.0,7.0,84,0.00,,OVC047,0.01,VWS V14.01,2013-04-11 21:17:00,
2013-04-11 17:22:00,48.6,44.0,29.97,NNE,29,3.0,10.0,84,0.00,,OVC047,0.01,VWS V14.01,2013-04-11 21:22:00,
2013-04-11 17:27:00,48.6,44.3,29.97,ENE,69,2.0,10.0,85,0.00,,OVC047,0.01,VWS V14.01,2013-04-11 21:27:00,
2013-04-11 17:32:00,48.7,44.4,29.97,NE,41,6.0,10.0,85,0.00,,OVC047,0.01,VWS V14.01,2013-04-11 21:32:00,
2013-04-11 17:37:00,48.7,44.4,29.97,East,79,2.0,10.0,85,0.00,,OVC047,0.01,VWS V14.01,2013-04-11 21:37:00,
2013-04-11 17:42:00,48.7,44.1,29.96,East,80,1.0,10.0,84,0.00,,OVC047,0.01,VWS V14.01,2013-04-11 21:42:00,
2013-04-11 17:47:00,48.7,44.1,29.96,ESE,117,4.0,10.0,84,0.00,,OVC047,0.01,VWS V14.01,2013-04-11 21:47:00,
2013-04-11 17:52:00,48.6,43.7,29.96,ENE,73,2.0,10.0,83,0.00,,OVC047,0.01,VWS V14.01,2013-04-11 21:52:00,
2013-04-11 17:57:00,48.6,43.7,29.96,ESE,115,1.0,10.0,83,0.00,,OVC047,0.01,VWS V14.01,2013-04-11 21:57:00,
2013-04-11 18:02:00,48.6,43.7,29.97,East,84,2.0,4.0,83,0.00,,OVC045,0.01,VWS V14.01,2013-04-11 22:02:00,
2013-04-11 18:07:00,48.6,43.4,29.97,ESE,107,0.0,9.0,82,0.00,,OVC045,0.01,VWS V14.01,2013-04-11 22:07:00,
2013-04-11 18:12:00,48.6,43.4,29.98,East,96,3.0,9.0,82,0.00,,OVC045,0.01,VWS V14.01,2013-04-11 22:12:00,
2013-04-11 18:17:00,48.5,43.3,29.98,ESE,111,2.0,9.0,82,0.00,,OVC045,0.01,VWS V14.01,2013-04-11 22:17:00,
2013-04-11 18:22:00,48.5,43.3,29.98,ESE,118,2.0,9.0,82,0.00,,OVC045,0.01,VWS V14.01,2013-04-11 22:22:00,
2013-04-11 18:27:00,48.5,43.3,29.98,ESE,108,1.0,9.0,82,0.00,,OVC045,0.01,VWS V14.01,2013-04-11 22:27:00,
2013-04-11 18:32:00,48.3,43.1,29.99,ESE,111,2.0,2.0,82,0.00,,OVC045,0.01,VWS V14.01,2013-04-11 22:32:00,
2013-04-11 18:37:00,48.2,43.0,29.99,ESE,110,0.0,5.0,82,0.00,,OVC045,0.01,VWS V14.01,2013-04-11 22:37:00,
2013-04-11 18:42:00,48.1,43.2,29.99,East,95,2.0,9.0,83,0.00,,OVC045,0.01,VWS V14.01,2013-04-11 22:42:00,
2013-04-11 18:47:00,48.1,43.2,29.99,East,85,2.0,9.0,83,0.00,,OVC045,0.01,VWS V14.01,2013-04-11 22:47:00,
2013-04-11 18:52:00,47.9,43.0,30.00,ENE,74,1.0,9.0,83,0.00,,OVC045,0.01,VWS V14.01,2013-04-11 22:52:00,
2013-04-11 18:57:00,47.8,43.2,30.00,ESE,121,2.0,9.0,84,0.00,,OVC045,0.01,VWS V14.01,2013-04-11 22:57:00,
2013-04-11 19:02:00,47.7,43.1,30.00,ESE,121,1.0,3.0,84,0.00,,OVC045,0.01,VWS V14.01,2013-04-11 23:02:00,
2013-04-11 19:07:00,47.5,42.9,30.01,ESE,119,1.0,4.0,84,0.00,,OVC045,0.01,VWS V14.01,2013-04-11 23:07:00,
2013-04-11 19:12:00,47.3,42.7,30.01,ESE,120,3.0,5.0,84,0.00,,OVC045,0.01,VWS V14.01,2013-04-11 23:12:00,
2013-04-11 19:17:00,47.0,42.4,30.01,SE,144,3.0,5.0,84,0.00,,OVC045,0.01,VWS V14.01,2013-04-11 23:17:00,
2013-04-11 19:22:00,46.8,41.9,30.01,East,96,0.0,5.0,83,0.00,,OVC045,0.01,VWS V14.01,2013-04-11 23:22:00,
2013-04-11 19:27:00,46.7,41.8,30.00,East,94,3.0,5.0,83,0.00,,OVC045,0.01,VWS V14.01,2013-04-11 23:27:00,
2013-04-11 19:33:00,46.6,42.0,30.00,East,100,1.0,3.0,84,0.00,,OVC045,0.01,VWS V14.01,2013-04-11 23:33:00,
2013-04-11 19:38:00,46.4,41.5,30.01,ESE,107,0.0,5.0,83,0.00,,OVC045,0.01,VWS V14.01,2013-04-11 23:38:00,
2013-04-11 19:43:00,46.3,41.7,30.01,ESE,119,1.0,5.0,84,0.00,,OVC045,0.01,VWS V14.01,2013-04-11 23:43:00,
2013-04-11 19:48:00,46.2,41.3,30.00,ESE,112,2.0,6.0,83,0.00,,OVC045,0.01,VWS V14.01,2013-04-11 23:48:00,
2013-04-11 19:53:00,46.1,41.2,30.00,South,170,3.0,6.0,83,0.00,,OVC045,0.01,VWS V14.01,2013-04-11 23:53:00,
2013-04-11 19:58:00,46.1,41.5,30.01,ESE,102,4.0,6.0,84,0.00,,OVC045,0.01,VWS V14.01,2013-04-11 23:58:00,
2013-04-11 20:03:00,46.0,41.4,30.01,ESE,117,2.0,3.0,84,0.00,,OVC043,0.01,VWS V14.01,2013-04-12 00:03:00,
2013-04-11 20:08:00,46.0,41.4,30.02,East,88,2.0,4.0,84,0.00,,OVC043,0.01,VWS V14.01,2013-04-12 00:08:00,
2013-04-11 20:13:00,46.0,41.4,30.01,ESE,114,1.0,5.0,84,0.00,,OVC043,0.01,VWS V14.01,2013-04-12 00:13:00,
2013-04-11 20:18:00,46.0,41.1,30.02,East,88,2.0,5.0,83,0.00,,OVC043,0.01,VWS V14.01,2013-04-12 00:18:00,
2013-04-11 20:23:00,46.0,41.1,30.03,ENE,71,0.0,5.0,83,0.00,,OVC043,0.01,VWS V14.01,2013-04-12 00:23:00,
2013-04-11 20:28:00,46.0,41.1,30.02,NE,54,2.0,5.0,83,0.00,,OVC043,0.01,VWS V14.01,2013-04-12 00:28:00,
2013-04-11 20:33:00,46.0,41.1,30.02,East,81,1.0,4.0,83,0.00,,OVC043,0.01,VWS V14.01,2013-04-12 00:33:00,
2013-04-11 20:38:00,46.0,41.1,30.03,ESE,113,0.0,4.0,83,0.00,,OVC043,0.01,VWS V14.01,2013-04-12 00:38:00,
2013-04-11 20:43:00,46.0,41.4,30.03,ESE,113,1.0,4.0,84,0.00,,OVC043,0.01,VWS V14.01,2013-04-12 00:43:00,
2013-04-11 20:48:00,46.0,41.4,30.03,SE,126,1.0,4.0,84,0.00,,OVC043,0.01,VWS V14.01,2013-04-12 00:48:00,
2013-04-11 20:53:00,46.0,41.4,30.03,ENE,65,2.0,5.0,84,0.00,,OVC043,0.01,VWS V14.01,2013-04-12 00:53:00,
2013-04-11 20:58:00,46.0,41.4,30.04,ENE,65,0.0,5.0,84,0.00,,OVC043,0.01,VWS V14.01,2013-04-12 00:58:00,
2013-04-11 21:03:00,46.0,41.4,30.04,ENE,66,1.0,3.0,84,0.00,,OVC043,0.01,VWS V14.01,2013-04-12 01:03:00,
2013-04-11 21:08:00,46.0,41.4,30.03,ENE,62,3.0,4.0,84,0.00,,OVC043,0.01,VWS V14.01,2013-04-12 01:08:00,
2013-04-11 21:13:00,46.0,41.4,30.04,ENE,65,4.0,5.0,84,0.00,,OVC043,0.01,VWS V14.01,2013-04-12 01:13:00,
2013-04-11 21:18:00,46.0,41.4,30.04,NNE,27,0.0,5.0,84,0.00,,OVC043,0.01,VWS V14.01,2013-04-12 01:18:00,
2013-04-11 21:23:00,46.0,41.4,30.05,NE,53,2.0,5.0,84,0.00,,OVC043,0.01,VWS V14.01,2013-04-12 01:23:00,
2013-04-11 21:28:00,46.0,41.4,30.05,SE,128,0.0,5.0,84,0.00,,OVC043,0.01,VWS V14.01,2013-04-12 01:28:00,
2013-04-11 21:33:00,46.0,41.4,30.05,SE,128,1.0,1.0,84,0.00,,OVC043,0.01,VWS V14.01,2013-04-12 01:33:00,
2013-04-11 21:38:00,46.0,41.4,30.05,ENE,67,0.0,4.0,84,0.00,,OVC043,0.01,VWS V14.01,2013-04-12 01:38:00,
2013-04-11 21:43:00,46.0,41.4,30.05,ENE,71,1.0,4.0,84,0.00,,OVC043,0.01,VWS V14.01,2013-04-12 01:43:00,
2013-04-11 21:48:00,46.1,41.5,30.05,NE,44,1.0,4.0,84,0.00,,OVC043,0.01,VWS V14.01,2013-04-12 01:48:00,
2013-04-11 21:53:00,46.1,41.5,30.06,ENE,62,2.0,4.0,84,0.00,,OVC043,0.01,VWS V14.01,2013-04-12 01:53:00,
2013-04-11 21:58:00,46.0,41.4,30.06,ENE,61,2.0,4.0,84,0.00,,OVC043,0.01,VWS V14.01,2013-04-12 01:58:00,
2013-04-11 22:03:00,46.1,41.5,30.06,East,82,2.0,5.0,84,0.00,,OVC043,0.01,VWS V14.01,2013-04-12 02:03:00,
2013-04-11 22:08:00,46.0,41.4,30.05,East,98,3.0,6.0,84,0.00,,OVC043,0.01,VWS V14.01,2013-04-12 02:08:00,
2013-04-11 22:13:00,46.0,41.4,30.05,North,11,4.0,9.0,84,0.00,,OVC043,0.01,VWS V14.01,2013-04-12 02:13:00,
2013-04-11 22:18:00,46.0,41.4,30.05,NE,56,1.0,9.0,84,0.00,,OVC043,0.01,VWS V14.01,2013-04-12 02:18:00,
2013-04-11 22:23:00,46.0,41.4,30.06,ENE,75,1.0,9.0,84,0.00,,OVC043,0.01,VWS V14.01,2013-04-12 02:23:00,
2013-04-11 22:28:00,46.0,41.4,30.06,ENE,75,0.0,9.0,84,0.00,,OVC043,0.01,VWS V14.01,2013-04-12 02:28:00,
2013-04-11 22:33:00,45.9,41.3,30.05,ENE,67,3.0,6.0,84,0.00,,OVC043,0.01,VWS V14.01,2013-04-12 02:33:00,
2013-04-11 22:38:00,45.9,41.3,30.05,NE,53,5.0,6.0,84,0.00,,OVC043,0.01,VWS V14.01,2013-04-12 02:38:00,
2013-04-11 22:43:00,45.9,41.3,30.06,ENE,63,1.0,6.0,84,0.00,,OVC043,0.01,VWS V14.01,2013-04-12 02:43:00,
2013-04-11 22:48:00,45.9,41.3,30.06,SE,130,2.0,6.0,84,0.00,,OVC043,0.01,VWS V14.01,2013-04-12 02:48:00,
2013-04-11 22:53:00,45.9,41.0,30.06,ESE,112,2.0,6.0,83,0.00,,OVC043,0.01,VWS V14.01,2013-04-12 02:53:00,
2013-04-11 22:58:00,45.9,41.0,30.05,ESE,114,3.0,6.0,83,0.00,,OVC043,0.01,VWS V14.01,2013-04-12 02:58:00,
2013-04-11 23:03:00,45.9,41.0,30.05,ENE,65,0.0,4.0,83,0.00,,OVC043,0.01,VWS V14.01,2013-04-12 03:03:00,
2013-04-11 23:08:00,46.0,41.1,30.05,ENE,76,2.0,5.0,83,0.00,,OVC043,0.01,VWS V14.01,2013-04-12 03:08:00,
2013-04-11 23:13:00,46.0,41.1,30.04,ESE,116,3.0,7.0,83,0.00,,OVC043,0.01,VWS V14.01,2013-04-12 03:13:00,
2013-04-11 23:18:00,46.0,40.8,30.05,NE,52,1.0,7.0,82,0.00,,OVC047,0.01,VWS V14.01,2013-04-12 03:18:00,
2013-04-11 23:23:00,46.0,40.8,30.05,NE,53,1.0,7.0,82,0.00,,OVC047,0.01,VWS V14.01,2013-04-12 03:23:00,
2013-04-11 23:28:00,46.0,40.8,30.05,ENE,63,2.0,7.0,82,0.00,,OVC047,0.01,VWS V14.01,2013-04-12 03:28:00,
2013-04-11 23:33:00,46.0,40.5,30.06,NE,48,0.0,3.0,81,0.00,,OVC047,0.01,VWS V14.01,2013-04-12 03:33:00,
2013-04-11 23:38:00,46.0,40.2,30.06,NE,55,3.0,3.0,80,0.00,,OVC047,0.01,VWS V14.01,2013-04-12 03:38:00,
2013-04-11 23:43:00,46.0,39.9,30.06,ENE,63,1.0,4.0,79,0.00,,OVC047,0.01,VWS V14.01,2013-04-12 03:43:00,
2013-04-11 23:48:00,46.0,39.5,30.06,ENE,65,3.0,6.0,78,0.00,,OVC047,0.01,VWS V14.01,2013-04-12 03:48:00,
2013-04-11 23:53:00,46.1,39.3,30.06,NE,55,1.0,6.0,77,0.00,,OVC047,0.01,VWS V14.01,2013-04-12 03:53:00,
2013-04-11 23:58:00,46.1,39.0,30.05,East,83,1.0,6.0,76,0.00,,OVC047,0.01,VWS V14.01,2013-04-12 03:58:00,